Time;durP1;ratioP1;P1;durP2;ratioP2;P2;SDS_P1;SDS_P2;PMS_P1;PMS_P2;Temp;Humidity;BMP_temperature;BMP_pressure;BME280_temperature;BME280_humidity;BME280_pressure;Samples;Min_cycle;Max_cycle;Signal;HPM_P1;HPM_P2
2022/07/29 00:00:14;;;;;;;5.75;1.27;;;20.00;92.20;;;;;;7340715;19;109766;-77
2022/07/29 00:02:41;;;;;;;5.05;1.20;;;20.00;92.30;;;;;;7346753;19;109744;-77
2022/07/29 00:05:09;;;;;;;4.68;1.30;;;19.90;92.40;;;;;;7341422;19;109409;-77
2022/07/29 00:07:37;;;;;;;2.78;0.82;;;19.90;92.60;;;;;;7340323;19;113243;-77
2022/07/29 00:10:04;;;;;;;4.13;1.05;;;19.90;92.70;;;;;;7341411;19;111150;-76
2022/07/29 00:12:31;;;;;;;5.78;1.30;;;19.90;92.70;;;;;;7340772;19;109560;-77
2022/07/29 00:14:58;;;;;;;4.63;1.10;;;19.90;92.70;;;;;;7340821;19;111049;-77
2022/07/29 00:17:25;;;;;;;4.22;1.00;;;19.80;92.80;;;;;;7337118;19;110121;-76
2022/07/29 00:19:53;;;;;;;3.65;1.23;;;19.80;93.00;;;;;;7337747;19;109738;-77
2022/07/29 00:22:20;;;;;;;5.88;1.23;;;19.70;93.00;;;;;;7340129;19;110316;-76
2022/07/29 00:24:48;;;;;;;3.33;1.10;;;19.70;93.10;;;;;;7345258;19;114207;-76
2022/07/29 00:27:17;;;;;;;2.42;1.00;;;19.70;93.20;;;;;;7340574;19;110402;-76
2022/07/29 00:29:44;;;;;;;2.78;0.93;;;19.70;93.10;;;;;;7339935;19;111277;-77
2022/07/29 00:32:11;;;;;;;5.05;1.20;;;19.70;93.20;;;;;;7340744;19;110047;-77
2022/07/29 00:37:24;;;;;;;6.82;1.10;;;19.80;93.20;;;;;;7337879;19;110585;-76
2022/07/29 00:39:51;;;;;;;2.25;0.80;;;19.80;93.20;;;;;;7339092;19;109555;-77
2022/07/29 00:42:18;;;;;;;2.63;0.90;;;19.80;93.20;;;;;;7339038;19;109593;-76
2022/07/29 00:44:45;;;;;;;3.38;1.02;;;19.80;93.30;;;;;;7340096;19;111138;-76
2022/07/29 00:47:12;;;;;;;4.65;1.50;;;19.80;93.30;;;;;;7343970;19;109457;-76
2022/07/29 00:49:41;;;;;;;4.18;1.20;;;19.80;93.30;;;;;;7339783;19;110169;-76
2022/07/29 00:52:10;;;;;;;4.35;1.10;;;19.70;93.40;;;;;;7337476;19;109552;-76
2022/07/29 00:54:39;;;;;;;5.68;1.10;;;19.60;93.70;;;;;;7340860;19;109583;-76
2022/07/29 00:57:11;;;;;;;4.40;0.90;;;19.50;94.00;;;;;;7337564;19;111248;-77
2022/07/29 00:59:38;;;;;;;5.32;0.82;;;19.40;94.10;;;;;;7339529;19;109685;-77
2022/07/29 01:02:05;;;;;;;4.60;1.20;;;19.40;94.20;;;;;;7339354;19;109479;-75
2022/07/29 01:04:33;;;;;;;5.72;1.10;;;19.30;94.30;;;;;;7336423;19;110782;-76
2022/07/29 01:07:04;;;;;;;2.72;0.90;;;19.30;94.30;;;;;;7336487;19;109441;-76
2022/07/29 01:09:33;;;;;;;5.82;1.00;;;19.30;94.30;;;;;;7342373;19;110466;-76
2022/07/29 01:12:18;;;;;;;3.90;1.38;;;19.30;94.50;;;;;;7339169;19;109333;-76
2022/07/29 01:14:47;;;;;;;5.07;1.00;;;19.20;94.60;;;;;;7339952;19;109586;-76
2022/07/29 01:17:24;;;;;;;3.50;0.90;;;19.10;94.60;;;;;;7336746;19;110102;-76
2022/07/29 01:20:13;;;;;;;5.40;0.82;;;19.20;95.20;;;;;;7336551;19;112179;-76
2022/07/29 01:23:08;;;;;;;3.83;1.23;;;19.10;94.80;;;;;;7338279;19;110627;-76
2022/07/29 01:26:29;;;;;;;5.22;1.00;;;19.10;95.00;;;;;;7340045;19;111261;-76
2022/07/29 01:29:15;;;;;;;3.42;1.00;;;19.10;95.00;;;;;;7334485;19;111751;-76
2022/07/29 01:32:02;;;;;;;2.67;1.10;;;19.00;94.90;;;;;;7340498;19;110352;-76
2022/07/29 01:34:49;;;;;;;5.30;0.93;;;19.00;95.20;;;;;;7331842;19;109864;-76
2022/07/29 01:37:21;;;;;;;7.47;1.00;;;18.90;95.20;;;;;;7331156;19;110819;-76
2022/07/29 01:39:51;;;;;;;4.70;1.23;;;18.90;95.20;;;;;;7333989;19;109964;-76
2022/07/29 01:42:38;;;;;;;2.67;0.95;;;18.90;95.20;;;;;;7333786;19;109193;-76
2022/07/29 01:45:11;;;;;;;4.28;0.90;;;18.90;95.20;;;;;;7334399;19;110631;-76
2022/07/29 01:48:03;;;;;;;5.43;1.10;;;18.90;95.30;;;;;;7332875;19;110176;-76
2022/07/29 01:50:51;;;;;;;4.93;1.10;;;19.00;95.20;;;;;;7333567;19;110525;-76
2022/07/29 01:53:32;;;;;;;3.92;0.90;;;18.90;95.40;;;;;;7333164;19;110787;-77
2022/07/29 01:56:06;;;;;;;8.15;0.80;;;18.90;95.50;;;;;;7340047;19;111169;-76
2022/07/29 01:58:36;;;;;;;4.45;1.00;;;18.90;95.60;;;;;;7331612;19;112289;-76
2022/07/29 02:01:05;;;;;;;3.97;1.00;;;18.90;95.60;;;;;;7334425;19;110885;-76
2022/07/29 02:03:35;;;;;;;5.57;1.10;;;19.00;95.40;;;;;;7335057;19;112055;-77
2022/07/29 02:06:04;;;;;;;4.93;1.30;;;19.10;95.40;;;;;;7337346;19;110121;-76
2022/07/29 02:08:33;;;;;;;4.55;0.85;;;19.00;95.40;;;;;;7337864;19;111490;-76
2022/07/29 02:11:03;;;;;;;3.17;0.95;;;19.00;95.40;;;;;;7338270;19;109679;-76
2022/07/29 02:13:31;;;;;;;2.40;0.90;;;19.10;95.30;;;;;;7338114;19;110803;-76
2022/07/29 02:16:00;;;;;;;3.88;0.80;;;19.10;95.20;;;;;;7338055;19;112948;-76
2022/07/29 02:18:30;;;;;;;3.58;0.93;;;19.10;95.10;;;;;;7340788;19;109818;-76
2022/07/29 02:20:59;;;;;;;4.90;1.00;;;19.20;95.00;;;;;;7336430;19;111403;-76
2022/07/29 02:23:26;;;;;;;1.90;0.93;;;19.30;94.90;;;;;;7336232;19;110516;-75
2022/07/29 02:25:57;;;;;;;1.95;0.98;;;19.30;94.90;;;;;;7335190;19;110385;-76
2022/07/29 02:28:27;;;;;;;5.20;1.08;;;19.30;94.90;;;;;;7337063;19;110699;-75
2022/07/29 02:31:02;;;;;;;2.83;0.90;;;19.30;94.80;;;;;;7336113;19;109552;-76
2022/07/29 02:33:31;;;;;;;4.78;1.00;;;19.30;95.00;;;;;;7334081;19;110843;-76
2022/07/29 02:35:59;;;;;;;2.88;1.00;;;19.10;95.20;;;;;;7334691;19;114356;-76
2022/07/29 02:41:27;;;;;;;3.72;1.02;;;18.90;95.60;;;;;;7341463;19;110045;-75
2022/07/29 02:44:03;;;;;;;5.40;1.20;;;18.90;95.90;;;;;;7335969;19;110980;-76
2022/07/29 02:46:36;;;;;;;5.47;0.95;;;18.80;96.10;;;;;;7335124;19;110820;-76
2022/07/29 02:49:06;;;;;;;3.15;0.90;;;18.70;96.30;;;;;;7332676;19;110421;-76
2022/07/29 02:51:43;;;;;;;4.75;0.90;;;18.70;96.50;;;;;;7333390;19;109415;-77
2022/07/29 02:54:17;;;;;;;3.33;0.90;;;18.50;96.80;;;;;;7332941;19;110828;-77
2022/07/29 02:56:46;;;;;;;2.92;1.25;;;18.50;96.90;;;;;;7335470;19;110248;-75
2022/07/29 02:59:16;;;;;;;5.53;1.25;;;18.50;96.80;;;;;;7334365;19;109208;-75
2022/07/29 03:01:44;;;;;;;3.63;1.27;;;18.50;96.80;;;;;;7334981;19;111725;-74
2022/07/29 03:04:13;;;;;;;2.75;1.00;;;18.50;96.90;;;;;;7341239;19;110674;-74
2022/07/29 03:06:43;;;;;;;5.57;1.10;;;18.60;96.60;;;;;;7337019;19;110475;-74
2022/07/29 03:09:11;;;;;;;4.55;1.08;;;18.60;96.70;;;;;;7335678;19;110442;-75
2022/07/29 03:11:41;;;;;;;4.45;1.42;;;18.70;96.60;;;;;;7338290;19;109776;-75
2022/07/29 03:14:18;;;;;;;9.85;1.20;;;18.70;96.90;;;;;;7336403;19;109379;-75
2022/07/29 03:16:48;;;;;;;5.63;1.00;;;18.70;96.50;;;;;;7335161;19;110165;-74
2022/07/29 03:19:16;;;;;;;2.33;1.27;;;18.70;96.50;;;;;;7334613;19;109507;-75
2022/07/29 03:21:43;;;;;;;4.22;1.40;;;18.70;96.90;;;;;;7336451;19;110189;-75
2022/07/29 03:24:10;;;;;;;4.45;1.50;;;18.60;96.60;;;;;;7336414;19;111225;-75
2022/07/29 03:26:37;;;;;;;2.97;1.50;;;18.60;96.70;;;;;;7341153;19;109224;-75
2022/07/29 03:29:04;;;;;;;8.50;1.70;;;18.60;96.70;;;;;;7337448;19;111055;-75
2022/07/29 03:31:31;;;;;;;5.57;1.50;;;18.60;96.80;;;;;;7336169;19;109430;-74
2022/07/29 03:33:59;;;;;;;5.05;1.73;;;18.60;96.80;;;;;;7334659;19;110386;-74
2022/07/29 03:36:26;;;;;;;3.42;1.75;;;18.50;96.90;;;;;;7334348;19;111718;-74
2022/07/29 03:38:54;;;;;;;7.65;1.75;;;18.50;97.20;;;;;;7335610;19;109405;-74
2022/07/29 03:41:23;;;;;;;5.13;1.80;;;18.40;97.30;;;;;;7338304;19;109974;-74
2022/07/29 03:43:52;;;;;;;4.22;1.85;;;18.40;97.30;;;;;;7343252;19;111549;-74
2022/07/29 03:46:22;;;;;;;5.07;2.05;;;18.40;97.40;;;;;;7348369;19;109305;-75
2022/07/29 03:48:56;;;;;;;5.93;2.25;;;18.30;97.70;;;;;;7340241;19;110547;-74
2022/07/29 03:51:23;;;;;;;3.78;2.22;;;18.20;97.80;;;;;;7342135;19;109343;-74
2022/07/29 03:54:03;;;;;;;8.47;2.80;;;18.20;98.00;;;;;;7341953;19;109416;-74
2022/07/29 03:56:45;;;;;;;4.32;2.13;;;18.20;98.00;;;;;;7337749;19;114382;-74
2022/07/29 03:59:13;;;;;;;;;;;18.20;98.10;;;;;;7342437;19;110006;-75
2022/07/29 04:01:41;;;;;;;6.43;1.90;;;18.10;98.40;;;;;;7345712;19;110575;-75
2022/07/29 04:04:08;;;;;;;3.67;2.00;;;18.00;98.10;;;;;;7342264;19;110317;-74
2022/07/29 04:06:44;;;;;;;3.45;1.65;;;18.10;98.10;;;;;;7340321;19;109735;-74
2022/07/29 04:09:13;;;;;;;4.95;1.80;;;18.20;98.10;;;;;;7345618;19;110924;-74
2022/07/29 04:11:41;;;;;;;5.30;1.85;;;18.10;98.40;;;;;;7341634;19;109613;-74
2022/07/29 04:14:28;;;;;;;6.45;2.17;;;18.00;98.80;;;;;;7343291;19;111518;-75
2022/07/29 04:16:55;;;;;;;5.82;2.05;;;17.80;99.40;;;;;;7343727;19;111126;-74
2022/07/29 04:19:22;;;;;;;6.20;2.00;;;17.60;99.90;;;;;;7341301;19;109426;-75
2022/07/29 04:21:49;;;;;;;5.97;1.80;;;17.40;99.90;;;;;;7342978;19;109737;-74
2022/07/29 04:24:17;;;;;;;4.35;1.50;;;17.40;99.90;;;;;;7341956;19;110581;-74
2022/07/29 04:26:48;;;;;;;3.70;1.70;;;17.30;99.90;;;;;;7342747;19;109297;-74
2022/07/29 04:29:15;;;;;;;3.38;1.80;;;17.40;99.90;;;;;;7342360;19;109407;-74
2022/07/29 04:31:43;;;;;;;5.63;1.38;;;17.60;99.90;;;;;;7345735;19;110472;-74
2022/07/29 04:34:11;;;;;;;3.33;1.55;;;17.70;99.90;;;;;;7338277;19;109919;-74
2022/07/29 04:36:39;;;;;;;4.63;1.60;;;17.80;99.90;;;;;;7338350;19;111147;-74
2022/07/29 04:39:06;;;;;;;4.05;2.03;;;17.80;99.90;;;;;;7341002;19;110088;-75
2022/07/29 04:41:33;;;;;;;3.50;1.70;;;17.90;99.80;;;;;;7339806;19;109441;-75
2022/07/29 04:44:04;;;;;;;3.67;1.35;;;18.00;99.80;;;;;;7342411;19;112245;-75
2022/07/29 04:46:38;;;;;;;;;;;18.00;99.70;;;;;;7343125;19;109439;-74
2022/07/29 04:49:05;;;;;;;3.80;1.70;;;18.00;99.80;;;;;;7344951;19;110146;-74
2022/07/29 04:51:32;;;;;;;2.90;1.67;;;18.00;99.80;;;;;;7342023;19;111679;-75
2022/07/29 04:53:59;;;;;;;11.13;1.95;;;18.00;99.90;;;;;;7346986;19;109788;-74
2022/07/29 04:56:26;;;;;;;5.53;1.70;;;18.00;99.90;;;;;;7341014;19;110732;-74
2022/07/29 04:58:53;;;;;;;4.60;2.22;;;17.90;99.90;;;;;;7340693;19;110135;-74
2022/07/29 05:01:20;;;;;;;3.65;1.80;;;17.80;99.90;;;;;;7342320;19;110192;-75
2022/07/29 05:03:47;;;;;;;3.60;1.90;;;17.80;99.90;;;;;;7341756;19;111217;-74
2022/07/29 05:06:14;;;;;;;3.25;2.08;;;17.80;99.90;;;;;;7340954;19;109707;-75
2022/07/29 05:08:41;;;;;;;5.82;1.92;;;17.80;99.90;;;;;;7339184;19;109673;-75
2022/07/29 05:11:08;;;;;;;4.50;1.90;;;17.70;99.90;;;;;;7339207;19;110743;-75
2022/07/29 05:13:39;;;;;;;3.63;1.77;;;17.70;99.90;;;;;;7341848;19;109518;-75
2022/07/29 05:16:13;;;;;;;4.70;2.05;;;17.70;99.90;;;;;;7345384;19;109844;-75
2022/07/29 05:18:41;;;;;;;6.60;2.10;;;17.80;99.90;;;;;;7339898;19;110251;-75
2022/07/29 05:21:09;;;;;;;5.05;1.92;;;17.80;99.90;;;;;;7340877;19;109869;-75
2022/07/29 05:23:36;;;;;;;5.20;2.28;;;17.80;99.90;;;;;;7340881;19;110096;-75
2022/07/29 05:26:03;;;;;;;8.40;2.03;;;17.80;99.90;;;;;;7341300;19;111396;-75
2022/07/29 05:28:34;;;;;;;5.85;2.20;;;17.80;99.90;;;;;;7340290;19;109827;-75
2022/07/29 05:31:01;;;;;;;5.97;1.95;;;17.80;99.90;;;;;;7339702;19;110891;-76
2022/07/29 05:33:28;;;;;;;6.05;2.08;;;17.80;99.90;;;;;;7340233;19;110023;-75
2022/07/29 05:36:06;;;;;;;7.57;1.90;;;17.80;99.90;;;;;;7343860;19;109421;-76
2022/07/29 05:38:37;;;;;;;7.55;2.10;;;17.90;99.90;;;;;;7339511;19;109471;-75
2022/07/29 05:41:05;;;;;;;7.70;2.47;;;18.00;99.90;;;;;;7338305;19;110430;-75
2022/07/29 05:43:32;;;;;;;4.00;1.80;;;18.10;99.90;;;;;;7338358;19;110454;-75
2022/07/29 05:45:59;;;;;;;5.38;2.35;;;18.10;99.90;;;;;;7340334;19;109589;-75
2022/07/29 05:48:27;;;;;;;6.25;2.10;;;18.20;99.90;;;;;;7340260;19;109684;-75
2022/07/29 05:50:54;;;;;;;7.15;2.15;;;18.30;99.90;;;;;;7339806;19;110250;-75
2022/07/29 05:53:21;;;;;;;9.85;2.35;;;18.30;99.90;;;;;;7339146;19;110120;-75
2022/07/29 05:55:49;;;;;;;5.65;2.05;;;18.20;99.90;;;;;;7340716;19;110413;-75
2022/07/29 05:58:27;;;;;;;4.88;2.60;;;18.20;99.90;;;;;;7341281;19;110122;-74
2022/07/29 06:00:58;;;;;;;4.75;2.13;;;18.30;99.90;;;;;;7339388;19;110512;-75
2022/07/29 06:03:26;;;;;;;6.95;2.03;;;18.30;99.90;;;;;;7337451;19;111407;-74
2022/07/29 06:05:53;;;;;;;5.57;2.40;;;18.40;99.90;;;;;;7337265;19;109671;-75
2022/07/29 06:08:20;;;;;;;3.78;1.92;;;18.50;99.90;;;;;;7336266;19;110341;-74
2022/07/29 06:10:48;;;;;;;4.80;2.35;;;18.50;99.90;;;;;;7339095;19;111156;-74
2022/07/29 06:13:15;;;;;;;4.93;2.15;;;18.50;99.90;;;;;;7339209;19;110261;-74
2022/07/29 06:15:43;;;;;;;11.55;2.47;;;18.70;99.90;;;;;;7339634;19;110803;-75
2022/07/29 06:18:10;;;;;;;6.28;2.60;;;18.80;99.90;;;;;;7338890;19;111172;-76
2022/07/29 06:20:37;;;;;;;3.85;2.15;;;18.80;99.90;;;;;;7340730;19;109464;-76
2022/07/29 06:23:04;;;;;;;4.75;1.80;;;18.90;99.90;;;;;;7337034;19;111182;-76
2022/07/29 06:25:36;;;;;;;6.65;2.45;;;19.10;99.90;;;;;;7340226;19;109206;-76
2022/07/29 06:28:03;;;;;;;7.60;2.20;;;19.20;99.90;;;;;;7339690;19;110846;-76
2022/07/29 06:30:30;;;;;;;6.32;1.83;;;19.20;99.90;;;;;;7339825;19;111934;-75
2022/07/29 06:32:58;;;;;;;3.05;2.10;;;19.30;99.90;;;;;;7337857;19;109424;-77
2022/07/29 06:35:25;;;;;;;8.05;2.30;;;19.50;99.90;;;;;;7338025;19;112299;-76
2022/07/29 06:38:08;;;;;;;7.30;2.47;;;19.50;99.90;;;;;;7336125;19;112255;-76
2022/07/29 06:41:02;;;;;;;3.55;2.30;;;19.50;99.90;;;;;;7336245;19;109673;-75
2022/07/29 06:43:35;;;;;;;5.60;2.78;;;19.60;99.90;;;;;;7341781;19;109872;-75
2022/07/29 06:46:21;;;;;;;4.18;1.98;;;19.70;99.90;;;;;;7338081;19;109747;-75
2022/07/29 06:48:50;;;;;;;5.32;2.60;;;19.80;99.90;;;;;;7338616;19;113197;-75
2022/07/29 06:51:18;;;;;;;3.25;1.98;;;20.00;99.70;;;;;;7337100;19;114924;-74
2022/07/29 06:53:50;;;;;;;3.42;2.00;;;20.10;99.70;;;;;;7337549;19;110033;-74
2022/07/29 06:56:28;;;;;;;6.20;2.00;;;20.10;99.60;;;;;;7339063;19;109539;-75
2022/07/29 06:58:55;;;;;;;5.70;2.25;;;20.30;99.60;;;;;;7337662;19;112495;-75
2022/07/29 07:01:22;;;;;;;6.10;1.80;;;20.50;99.30;;;;;;7339573;19;109720;-75
2022/07/29 07:03:49;;;;;;;7.47;2.50;;;20.60;98.80;;;;;;7336353;19;111450;-75
2022/07/29 07:06:16;;;;;;;4.53;2.15;;;20.50;98.80;;;;;;7342443;19;111465;-74
2022/07/29 07:08:43;;;;;;;10.43;2.33;;;20.30;99.10;;;;;;7334602;19;110499;-74
2022/07/29 07:11:11;;;;;;;10.38;2.80;;;20.30;99.50;;;;;;7336203;19;110446;-74
2022/07/29 07:13:38;;;;;;;9.18;2.30;;;20.40;99.40;;;;;;7334366;19;110813;-75
2022/07/29 07:16:05;;;;;;;3.40;1.90;;;20.40;99.20;;;;;;7336319;19;110634;-75
2022/07/29 07:18:32;;;;;;;3.47;2.10;;;20.40;99.30;;;;;;7340547;19;111360;-75
2022/07/29 07:20:59;;;;;;;5.53;2.20;;;20.50;99.20;;;;;;7343063;19;109371;-75
2022/07/29 07:23:27;;;;;;;4.28;2.28;;;20.40;99.00;;;;;;7342623;19;110919;-75
2022/07/29 07:25:54;;;;;;;7.68;2.40;;;20.40;99.00;;;;;;7343358;19;111121;-75
2022/07/29 07:28:21;;;;;;;7.05;2.55;;;20.50;99.10;;;;;;7348975;19;109963;-75
2022/07/29 07:30:50;;;;;;;6.82;1.98;;;20.60;99.00;;;;;;7343544;19;111270;-75
2022/07/29 07:33:17;;;;;;;4.28;2.13;;;20.70;98.90;;;;;;7344020;19;109578;-75
2022/07/29 07:35:45;;;;;;;6.53;1.90;;;20.90;98.70;;;;;;7342551;19;112825;-75
2022/07/29 07:38:12;;;;;;;4.22;2.03;;;20.90;98.80;;;;;;7343726;19;110440;-88
2022/07/29 07:40:40;;;;;;;4.55;1.90;;;20.90;99.00;;;;;;7342072;19;109639;-80
2022/07/29 07:43:07;;;;;;;5.60;2.58;;;21.00;98.90;;;;;;7344176;19;109874;-83
2022/07/29 07:45:36;;;;;;;3.40;1.70;;;21.10;98.70;;;;;;7343372;19;110675;-81
2022/07/29 07:48:04;;;;;;;9.60;2.35;;;21.30;98.70;;;;;;7349651;19;109364;-82
2022/07/29 07:50:31;;;;;;;5.28;1.90;;;21.50;98.60;;;;;;7342033;19;110228;-82
2022/07/29 07:52:59;;;;;;;6.90;1.95;;;21.70;98.30;;;;;;7344778;19;109927;-81
2022/07/29 07:55:26;;;;;;;5.55;2.13;;;21.80;97.90;;;;;;7344340;19;109440;-85
2022/07/29 07:57:54;;;;;;;2.92;1.83;;;21.90;97.90;;;;;;7343951;19;110202;-88
2022/07/29 08:00:22;;;;;;;6.50;2.22;;;22.00;97.50;;;;;;7342429;19;109495;-81
2022/07/29 08:02:50;;;;;;;10.68;2.10;;;21.90;97.30;;;;;;7345300;19;110459;-87
2022/07/29 08:05:17;;;;;;;3.30;1.90;;;22.00;97.40;;;;;;7342772;19;111320;-81
2022/07/29 08:07:46;;;;;;;4.38;1.95;;;22.00;97.50;;;;;;7342389;19;109534;-81
2022/07/29 08:10:51;;;;;;;4.65;2.10;;;22.20;97.30;;;;;;7346591;19;109443;-80
2022/07/29 08:13:09;;;;;;;5.50;1.80;;;22.30;97.20;;;;;;7342915;19;109415;-81
2022/07/29 08:15:36;;;;;;;2.92;2.00;;;22.40;97.40;;;;;;7343157;19;112308;-87
2022/07/29 08:18:03;;;;;;;7.68;2.20;;;22.50;97.40;;;;;;7343537;19;111169;-87
2022/07/29 08:20:35;;;;;;;5.13;2.25;;;22.80;97.20;;;;;;7341494;19;109367;-85
2022/07/29 08:23:04;;;;;;;4.25;2.13;;;22.80;96.80;;;;;;7344034;19;109495;-81
2022/07/29 08:25:41;;;;;;;6.72;2.13;;;22.80;96.80;;;;;;7343950;19;110108;-86
2022/07/29 08:28:08;;;;;;;;;;;22.80;96.90;;;;;;7343672;19;109516;-84
2022/07/29 08:30:35;;;;;;;5.15;2.10;;;22.90;97.30;;;;;;7347778;19;110766;-82
2022/07/29 08:33:02;;;;;;;5.05;2.10;;;22.90;96.60;;;;;;7348381;19;111986;-80
2022/07/29 08:35:29;;;;;;;2.38;1.83;;;22.90;96.60;;;;;;7344346;19;109839;-81
2022/07/29 08:38:03;;;;;;;3.53;2.10;;;23.00;96.70;;;;;;7342214;19;111232;-83
2022/07/29 08:40:30;;;;;;;4.30;2.00;;;23.10;96.60;;;;;;7343064;19;109277;-85
2022/07/29 08:43:03;;;;;;;9.57;2.22;;;23.20;96.60;;;;;;7343307;19;109977;-83
2022/07/29 08:45:48;;;;;;;4.75;2.42;;;23.30;96.40;;;;;;7343692;19;110123;-83
2022/07/29 08:48:17;;;;;;;6.03;2.10;;;23.40;95.70;;;;;;7343654;19;109387;-79
2022/07/29 08:50:46;;;;;;;4.57;2.00;;;23.40;95.90;;;;;;7343851;19;109721;-83
2022/07/29 08:53:17;;;;;;;4.45;2.30;;;23.40;95.90;;;;;;7342825;19;110235;-84
2022/07/29 08:55:47;;;;;;;5.13;2.40;;;23.30;95.70;;;;;;7348813;19;110159;-79
2022/07/29 08:58:15;;;;;;;3.45;2.17;;;23.30;95.80;;;;;;7343402;19;110115;-82
2022/07/29 09:00:45;;;;;;;5.63;2.00;;;23.40;96.10;;;;;;7342019;19;109828;-84
2022/07/29 09:03:17;;;;;;;7.13;2.00;;;23.50;95.80;;;;;;7343024;19;110909;-82
2022/07/29 09:05:46;;;;;;;5.40;2.28;;;23.60;95.50;;;;;;7342757;19;111522;-81
2022/07/29 09:08:17;;;;;;;5.70;2.17;;;23.70;95.40;;;;;;7343213;19;109552;-82
2022/07/29 09:10:44;;;;;;;3.67;1.88;;;23.80;95.30;;;;;;7342296;19;110422;-80
2022/07/29 09:13:11;;;;;;;5.93;1.90;;;23.90;95.20;;;;;;7342925;19;114645;-85
2022/07/29 09:15:39;;;;;;;5.30;1.80;;;24.00;94.80;;;;;;7343084;19;109915;-87
2022/07/29 09:18:06;;;;;;;5.72;2.35;;;23.90;94.50;;;;;;7347508;19;109477;-81
2022/07/29 09:23:18;;;;;;;6.50;1.77;;;23.90;95.60;;;;;;7339995;19;110622;-88
2022/07/29 09:25:50;;;;;;;4.82;2.00;;;24.10;94.60;;;;;;7342187;19;111021;-79
2022/07/29 09:28:18;;;;;;;3.08;1.23;;;24.10;94.00;;;;;;7342465;19;109216;-83
2022/07/29 09:30:54;;;;;;;4.88;1.42;;;24.00;93.80;;;;;;7342295;19;109740;-81
2022/07/29 09:33:23;;;;;;;6.75;1.58;;;23.90;94.10;;;;;;7340309;19;110054;-82
2022/07/29 09:36:07;;;;;;;4.45;1.52;;;24.00;93.70;;;;;;7342062;19;109703;-81
2022/07/29 09:38:36;;;;;;;4.60;1.35;;;24.10;94.10;;;;;;7336865;19;109363;-85
2022/07/29 09:41:04;;;;;;;7.13;1.70;;;24.30;93.60;;;;;;7344351;19;109732;-85
2022/07/29 09:43:33;;;;;;;4.68;1.38;;;24.40;93.20;;;;;;7341552;19;113346;-82
2022/07/29 09:46:13;;;;;;;4.78;1.67;;;24.50;93.10;;;;;;7340567;19;110089;-85
2022/07/29 09:48:40;;;;;;;6.35;1.48;;;24.60;93.10;;;;;;7341805;19;109222;-80
2022/07/29 09:51:34;;;;;;;3.15;1.25;;;24.60;92.30;;;;;;7341715;19;110471;-79
2022/07/29 09:54:25;;;;;;;5.20;1.40;;;24.80;92.20;;;;;;7340723;19;111975;-84
2022/07/29 09:56:53;;;;;;;9.85;1.33;;;24.80;92.40;;;;;;7341742;19;109271;-83
2022/07/29 09:59:24;;;;;;;6.30;1.20;;;25.00;92.20;;;;;;7340122;19;109596;-89
2022/07/29 10:01:51;;;;;;;2.55;1.00;;;25.10;92.20;;;;;;7344443;19;115216;-81
2022/07/29 10:04:19;;;;;;;3.05;1.63;;;25.20;91.30;;;;;;7341034;19;109192;-82
2022/07/29 10:06:57;;;;;;;5.40;1.13;;;25.10;90.70;;;;;;7339523;19;110163;-81
2022/07/29 10:09:31;;;;;;;4.25;1.10;;;25.10;89.80;;;;;;7340635;19;109600;-81
2022/07/29 10:12:14;;;;;;;4.70;1.30;;;25.00;90.80;;;;;;7340845;19;113002;-80
2022/07/29 10:14:42;;;;;;;3.58;1.10;;;25.10;90.20;;;;;;7340020;19;113457;-86
2022/07/29 10:17:10;;;;;;;2.97;0.90;;;25.10;90.90;;;;;;7340173;19;109484;-85
2022/07/29 10:19:38;;;;;;;6.65;0.98;;;25.30;90.20;;;;;;7338902;19;109710;-84
2022/07/29 10:22:10;;;;;;;2.38;1.10;;;25.20;87.90;;;;;;7335083;19;111601;-87
2022/07/29 10:24:38;;;;;;;4.68;1.17;;;25.40;89.30;;;;;;7346508;19;109208;-90
2022/07/29 10:27:07;;;;;;;2.08;1.10;;;25.40;88.90;;;;;;7340857;19;111183;-88
2022/07/29 10:29:36;;;;;;;7.35;0.93;;;25.60;87.30;;;;;;7341261;19;109778;-85
2022/07/29 10:32:20;;;;;;;2.45;0.98;;;25.70;88.00;;;;;;7339236;19;109470;-91
2022/07/29 10:35:07;;;;;;;2.85;1.17;;;25.70;86.10;;;;;;7339824;19;111492;-89
2022/07/29 10:38:00;;;;;;;4.57;1.30;;;25.60;84.10;;;;;;7338591;19;109513;-88
2022/07/29 10:43:48;;;;;;;2.97;1.10;;;25.80;85.40;;;;;;7341521;19;110373;-90
2022/07/29 10:46:18;;;;;;;5.38;1.35;;;26.00;86.40;;;;;;7340062;19;109471;-88
2022/07/29 10:49:05;;;;;;;7.65;1.00;;;26.10;85.10;;;;;;7345462;19;111642;-84
2022/07/29 10:51:52;;;;;;;;;;;26.20;84.40;;;;;;7347332;19;109328;-86
2022/07/29 10:54:36;;;;;;;5.80;1.20;;;26.30;85.80;;;;;;7352055;19;114475;-85
2022/07/29 10:57:14;;;;;;;6.95;1.20;;;26.40;83.10;;;;;;7348709;19;112933;-89
2022/07/29 10:59:43;;;;;;;3.42;1.00;;;26.30;82.10;;;;;;7348567;19;110212;-85
2022/07/29 11:02:39;;;;;;;5.15;1.00;;;26.40;82.70;;;;;;7346020;19;109763;-88
2022/07/29 11:05:11;;;;;;;4.63;0.95;;;26.40;81.10;;;;;;7349161;19;110816;-93
2022/07/29 11:07:59;;;;;;;5.15;0.80;;;26.40;83.40;;;;;;7348439;19;109851;-89
2022/07/29 11:10:28;;;;;;;6.22;1.00;;;26.60;82.60;;;;;;7347163;19;110461;-83
2022/07/29 11:12:58;;;;;;;3.92;1.40;;;26.70;79.70;;;;;;7352216;19;110999;-88
2022/07/29 11:15:25;;;;;;;5.40;1.00;;;26.70;77.70;;;;;;7346578;19;110451;-84
2022/07/29 11:17:56;;;;;;;2.25;1.05;;;26.60;79.20;;;;;;7346449;19;110775;-92
2022/07/29 11:20:47;;;;;;;4.38;1.45;;;26.60;78.70;;;;;;7350370;19;109480;-91
2022/07/29 11:23:18;;;;;;;2.67;1.10;;;26.80;80.70;;;;;;7345479;19;109359;-87
2022/07/29 11:26:07;;;;;;;3.40;1.20;;;27.00;78.40;;;;;;7344508;19;110280;-92
2022/07/29 11:28:39;;;;;;;4.80;1.30;;;26.90;76.70;;;;;;7345336;19;109298;-86
2022/07/29 11:31:09;;;;;;;4.32;0.98;;;27.00;77.80;;;;;;7347675;19;109402;-93
2022/07/29 11:33:37;;;;;;;4.68;1.10;;;27.30;79.50;;;;;;7344098;19;110436;-92
2022/07/29 11:36:22;;;;;;;3.28;1.10;;;27.40;77.70;;;;;;7351657;19;109764;-93
2022/07/29 11:39:25;;;;;;;4.00;1.02;;;27.50;75.70;;;;;;7344238;19;110435;-88
2022/07/29 11:42:20;;;;;;;4.97;1.52;;;27.50;72.50;;;;;;7343113;19;109388;-85
2022/07/29 11:45:07;;;;;;;4.28;1.40;;;27.20;73.10;;;;;;7345450;19;110232;-83
2022/07/29 11:47:58;;;;;;;4.97;1.10;;;27.10;73.50;;;;;;7345971;19;112876;-90
2022/07/29 11:50:45;;;;;;;6.53;1.20;;;27.30;75.90;;;;;;7345630;19;109459;-86
2022/07/29 11:53:14;;;;;;;3.60;1.10;;;27.50;73.90;;;;;;7345711;19;109389;-89
2022/07/29 11:55:42;;;;;;;4.20;1.00;;;27.70;74.50;;;;;;7345775;19;111056;-83
2022/07/29 11:58:22;;;;;;;3.83;0.90;;;27.80;73.00;;;;;;7343754;19;109382;-87
2022/07/29 12:01:16;;;;;;;2.47;1.00;;;27.70;73.20;;;;;;7347880;19;111411;-83
2022/07/29 12:03:43;;;;;;;7.55;1.10;;;27.80;73.20;;;;;;7342947;19;110390;-92
2022/07/29 12:06:14;;;;;;;2.47;1.00;;;27.90;72.50;;;;;;7347518;19;110546;-88
2022/07/29 12:08:45;;;;;;;6.13;1.05;;;28.10;72.30;;;;;;7344113;19;115260;-86
2022/07/29 12:11:20;;;;;;;3.85;0.85;;;28.20;70.90;;;;;;7344390;19;109687;-83
2022/07/29 12:13:51;;;;;;;8.00;1.27;;;28.20;71.00;;;;;;7344001;19;109347;-83
2022/07/29 12:16:19;;;;;;;3.30;1.00;;;28.40;71.10;;;;;;7343190;19;110275;-87
2022/07/29 12:18:59;;;;;;;5.00;1.05;;;28.50;70.30;;;;;;7345911;19;110377;-91
2022/07/29 12:21:29;;;;;;;8.25;1.23;;;28.70;69.90;;;;;;7347521;19;109400;-91
2022/07/29 12:23:57;;;;;;;4.72;0.90;;;28.60;67.90;;;;;;7342515;19;109527;-84
2022/07/29 12:26:35;;;;;;;3.42;1.10;;;28.50;67.10;;;;;;7343485;19;109878;-84
2022/07/29 12:29:03;;;;;;;4.63;1.10;;;28.40;68.30;;;;;;7343224;19;110172;-82
2022/07/29 12:31:39;;;;;;;;;;;28.60;69.00;;;;;;7343807;19;110621;-82
2022/07/29 12:34:11;;;;;;;5.22;1.35;;;28.80;67.50;;;;;;7345678;19;110102;-80
2022/07/29 12:36:40;;;;;;;4.78;0.93;;;28.80;66.70;;;;;;7343500;19;111251;-86
2022/07/29 12:39:08;;;;;;;10.05;1.30;;;28.70;66.60;;;;;;7340566;19;109812;-87
2022/07/29 12:41:36;;;;;;;7.40;1.67;;;28.70;65.40;;;;;;7339564;19;109695;-84
2022/07/29 12:44:03;;;;;;;7.80;1.55;;;28.60;65.50;;;;;;7346985;19;111110;-86
2022/07/29 12:46:31;;;;;;;8.15;1.58;;;28.40;66.80;;;;;;7341810;19;109677;-81
2022/07/29 12:48:58;;;;;;;7.25;1.10;;;28.50;66.10;;;;;;7343557;19;111372;-81
2022/07/29 12:51:32;;;;;;;3.60;0.90;;;28.80;68.00;;;;;;7340791;19;109452;-81
2022/07/29 12:54:13;;;;;;;2.08;0.82;;;29.10;65.60;;;;;;7341661;19;109696;-82
2022/07/29 12:56:43;;;;;;;4.18;1.10;;;29.30;69.10;;;;;;7340316;19;109966;-80
2022/07/29 12:59:15;;;;;;;2.65;1.00;;;29.50;67.50;;;;;;7340795;19;110551;-83
2022/07/29 13:01:43;;;;;;;3.72;1.00;;;29.70;67.00;;;;;;7341698;19;110673;-81
2022/07/29 13:04:10;;;;;;;3.53;0.90;;;30.00;65.00;;;;;;7342849;19;111457;-83
2022/07/29 13:06:38;;;;;;;6.68;1.10;;;30.10;64.30;;;;;;7347558;19;109679;-82
2022/07/29 13:09:09;;;;;;;3.63;0.85;;;30.20;64.10;;;;;;7341679;19;110484;-82
2022/07/29 13:11:45;;;;;;;4.65;1.10;;;30.30;64.10;;;;;;7341191;19;111476;-81